• Join FlightAware (Why Join?)
  • Login
  • US Flag 
01:36PM EDT


 

Airport Tracker/Info


-or-


 

Live Flight TrackerFlight Track Log ✈ SWA2004 ✈ 23-Nov-2013 ✈ KATL - KMDW

Flight Track Log - Related Links

Times and Time Zones

All times are in EST time to prevent confusion due to time zone crossing. See the SWA2004 flight status page for this flight to view local times or setup timezone preferences in your user account.

Time Position Orientation Groundspeed Altitude Reporting Facility
EST Latitude Longitude Course Direction KTS MPH feet Rate Location/Type
11:52AM 33.6500 -84.4667 287° West 167 192 2,400  Level Atlanta TRACON
11:53AM 33.6667 -84.5333 287° West 234 269 4,300 2,520 Climbing Atlanta TRACON
11:54AM 33.7167 -84.5833 320° Northwest 279 321 7,500 3,300 Climbing Atlanta TRACON
11:55AM 33.8000 -84.5833 360° North 275 316 11,300 2,760 Climbing Atlanta TRACON
11:56AM 33.8994 -84.5869 358° North 288 331 13,500 2,400 Climbing Atlanta Center
11:57AM 34.0017 -84.5925 357° North 350 403 16,300 2,700 Climbing Atlanta Center
11:58AM 34.1122 -84.5908 North 371 427 19,000 2,820 Climbing Atlanta Center
11:59AM 34.2250 -84.6167 349° North 407 468 22,000 2,580 Climbing Atlanta Center
12:00PM 34.3250 -84.6400 349° North 414 476 24,200 2,220 Climbing Atlanta Center
12:01PM 34.4397 -84.6658 349° North 419 482 26,500 1,920 Climbing Atlanta Center
12:02PM 34.5583 -84.6997 347° North 426 490 28,100 1,800 Climbing Atlanta Center
12:03PM 34.6750 -84.7661 335° Northwest 426 490 30,200 2,340 Climbing Atlanta Center
12:04PM 34.7789 -84.8303 333° Northwest 420 483 32,800 2,220 Climbing Atlanta Center
12:05PM 34.8850 -84.8844 337° Northwest 415 478 34,700 1,800 Climbing Atlanta Center
12:06PM 34.9911 -84.9286 341° North 410 472 36,500 1,680 Climbing Atlanta Center
12:07PM 35.1078 -84.9528 350° North 410 472 38,100 1,380 Climbing Atlanta Center
12:08PM 35.2181 -84.9744 351° North 405 466 39,300 900 Climbing Atlanta Center
12:09PM 35.3286 -84.9958 351° North 405 466 40,000 300 Climbing Atlanta Center
12:10PM 35.4411 -85.0203 350° North 410 472 40,000  Level Atlanta Center
12:11PM 35.5514 -85.0419 351° North 410 472 40,000  Level Atlanta Center
12:12PM 35.6639 -85.0636 351° North 410 472 40,000  Level Atlanta Center
12:15PM 35.9083 -85.1131 351° North 409 471 40,000  Level Indianapolis Center
12:16PM 36.0311 -85.1372 351° North 406 467 40,000  Level Indianapolis Center
12:17PM 36.1411 -85.1603 350° North 400 460 40,000  Level Indianapolis Center
12:18PM 36.2517 -85.1811 351° North 399 459 40,000  Level Indianapolis Center
12:19PM 36.3617 -85.2014 352° North 398 458 40,000  Level Indianapolis Center
12:20PM 36.4706 -85.2236 351° North 396 456 40,000  Level Indianapolis Center
12:21PM 36.5789 -85.2444 351° North 392 451 40,000  Level Indianapolis Center
12:22PM 36.7097 -85.2689 351° North 396 456 40,000  Level Indianapolis Center
12:23PM 36.8192 -85.2906 351° North 396 456 40,000  Level Indianapolis Center
12:24PM 36.9283 -85.3117 351° North 396 456 40,000  Level Indianapolis Center
12:25PM 37.0439 -85.3344 351° North 400 460 40,000  Level Indianapolis Center
12:26PM 37.1544 -85.3569 351° North 400 460 40,000  Level Indianapolis Center
12:27PM 37.2647 -85.3789 351° North 401 461 40,000  Level Indianapolis Center
12:28PM 37.3739 -85.4003 351° North 397 457 40,000  Level Indianapolis Center
12:29PM 37.4819 -85.4214 351° North 392 451 40,000  Level Indianapolis Center
12:30PM 37.5897 -85.4447 350° North 391 450 40,000  Level Indianapolis Center
12:31PM 37.6972 -85.4664 351° North 388 447 40,000  Level Indianapolis Center
12:32PM 37.8050 -85.4886 351° North 390 449 40,000 -420 Level Indianapolis Center
12:33PM 37.9289 -85.5119 352° North 398 458 39,200 -840 Descending Indianapolis Center
12:34PM 38.0364 -85.5342 351° North 391 450 38,300 -960 Descending Indianapolis Center
12:35PM 38.1461 -85.5556 351° North 397 457 37,300 -960 Descending Indianapolis Center
12:36PM 38.2581 -85.5783 351° North 403 464 36,400 -960 Descending Indianapolis Center
12:37PM 38.3706 -85.6011 351° North 406 467 35,400 -720 Descending Indianapolis Center
12:38PM 38.4836 -85.6250 351° North 409 471 35,000 -240 Descending Indianapolis Center
12:39PM 38.6003 -85.6486 351° North 417 480 35,000  Level Indianapolis Center
12:40PM 38.7153 -85.6728 351° North 420 483 35,000 -540 Level Indianapolis Center
12:41PM 38.8289 -85.6967 351° North 418 481 34,000 -1,080 Descending Indianapolis Center
12:42PM 38.9653 -85.7253 351° North 415 478 32,800 -1,260 Descending Indianapolis Center
12:43PM 39.0803 -85.7492 351° North 419 482 31,500 -1,380 Descending Indianapolis Center
12:44PM 39.1914 -85.7719 351° North 409 471 30,000 -780 Descending Indianapolis Center
12:45PM 39.3053 -85.7958 351° North 415 478 30,000 -60 Level Indianapolis Center
12:46PM 39.4167 -85.8192 351° North 411 473 29,900 -720 Descending Indianapolis Center
12:47PM 39.5275 -85.8436 350° North 407 468 28,600 -1,320 Descending Indianapolis Center
12:48PM 39.6625 -85.8725 351° North 414 476 27,200 -1,380 Descending Indianapolis Center
12:50PM 39.8925 -85.9211 351° North 425 489 24,500 -1,080 Descending Indianapolis Center
12:51PM 40.0028 -85.9450 351° North 410 472 24,000 -300 Descending Indianapolis Center
12:52PM 40.1131 -85.9681 351° North 405 466 24,000 -300 Level Indianapolis Center
12:53PM 40.2411 -86.0067 347° North 395 455 23,400 -780 Descending Indianapolis Center
12:54PM 40.3375 -86.0583 338° Northwest 379 436 22,400 -1,080 Descending Indianapolis Center
12:55PM 40.4356 -86.1081 339° North 379 436 21,200 -1,560 Descending Indianapolis Center
12:57PM 40.5306 -86.1597 338° Northwest 376 433 19,300 -1,620 Descending Indianapolis Center
12:58PM 40.6203 -86.2064 338° Northwest 358 412 17,900 -1,620 Descending Indianapolis Center
12:59PM 40.7069 -86.2514 339° North 340 391 16,000 -1,800 Descending Indianapolis Center
01:00PM 40.7892 -86.2961 338° Northwest 328 377 14,300 -1,680 Descending Indianapolis Center
01:01PM 40.8925 -86.3483 339° North 329 379 12,600 -1,620 Descending Indianapolis Center
01:02PM 40.9744 -86.3928 338° Northwest 326 375 11,100 -900 Descending Indianapolis Center
01:03PM 41.0431 -86.4547 326° Northwest 314 361 10,800 -300 Descending Indianapolis Center
01:04PM 41.0997 -86.5386 312° West 309 356 10,600 -420 Descending Indianapolis Center
01:05PM 41.1558 -86.6217 312° West 307 353 10,000 -300 Descending Indianapolis Center
01:06PM 41.2114 -86.7053 311° West 305 351 10,000  Level Indianapolis Center
01:07PM 41.2672 -86.7881 312° West 303 349 10,000 -60 Level Indianapolis Center
01:08PM 41.3492 -86.9094 312° West 301 346 9,900 -180 Descending Chicago Center
01:09PM 41.3967 -86.9803 312° West 265 305 9,700 -840 Descending Chicago Center
01:10PM 41.4417 -87.0628 306° West 242 278 8,300 -1,140 Descending Chicago Center
01:11PM 41.4764 -87.1400 301° West 242 278 7,400 -660 Descending Chicago Center
01:12PM 41.5075 -87.2158 299° West 239 275 7,000 -300 Descending Chicago Center
01:13PM 41.5394 -87.2914 299° West 236 272 6,800 -540 Descending Chicago Center
01:14PM 41.5725 -87.3689 300° West 238 274 6,000 -840 Descending Chicago Center
01:15PM 41.6050 -87.4458 299° West 239 275 5,100 -840 Descending Chicago Center
01:16PM 41.6372 -87.5217 300° West 238 274 4,300 -600 Descending Chicago Center
01:17PM 41.6719 -87.5933 303° West 211 243 3,900 -540 Descending Chicago Center
01:18PM 41.7000 -87.6322 314° West 170 196 3,200 -720 Descending Chicago Center
01:19PM 41.7239 -87.6669 313° West 147 169 2,500 -720 Descending Chicago Center
01:21PM 41.7458 -87.6983 313° West 131 151 1,800 -720 Descending Chicago Center
01:22PM 41.7683 -87.7294 314° West 122 140 1,100 -720 Descending Chicago Center